Soleil Weather Down

Nearby METAR Reports

 

KCNI - Canton/Cherokee, Georgia, USA
Distance from station: ENE 6mi, 10km
Updated: Thu, 26-Jan-2023 7:35pm EST
Mostly cloudy
Mostly cloudy
 Wind from NW
Wind: NW 5 mph , 7 km/h
Temperature: 37°F , 3°C
Wind Chill: 33°F , 1°C
Dew Point: 25°F , -4°C
Humidity: 60%
Barometer: 30.17 inHg , 1021.7 hPa
Clouds: Mostly cloudy
Visibility: 10 miles , 16 km
Cloud details: Mostly cloudy 4900 ft
2023/01/27 00:35 KCNI 270035Z AUTO 31004KT 10SM BKN049 03/M04 A3017 RMK AO2 T00321036
KRYY - Marietta Mccolum, Georgia, USA
Distance from station: SSW 18mi, 29km
Updated: Thu, 26-Jan-2023 6:50pm EST
Few Clouds
Few Clouds
 Wind from W
Wind: W 5 mph , 7 km/h
Temperature: 41°F , 5°C
Wind Chill: 38°F , 3°C
Dew Point: 27°F , -3°C
Humidity: 57%
Barometer: 30.17 inHg , 1021.7 hPa
Clouds: Few Clouds
Visibility: 10 miles , 16 km
Cloud details: Few Clouds 4900 ft
2023/01/26 23:50 KRYY 262350Z 26004KT 10SM FEW049 05/M03 A3017 RMK AO2 SLP219 T00501028 10083 20050 51013 $
KVPC - Cartersville, Georgia, USA
Distance from station: WSW 22mi, 35km
Updated: Thu, 26-Jan-2023 7:35pm EST
Overcast
Overcast
 Wind from calm
Wind: Calm
Temperature: 39°F , 4°C
Dew Point: 28°F , -2°C
Humidity: 65%
Barometer: 30.19 inHg , 1022.4 hPa
Clouds: Overcast
Visibility: 10 miles , 16 km
Cloud details: Overcast 4700 ft
2023/01/27 00:35 KVPC 270035Z AUTO 00000KT 10SM OVC047 04/M02 A3019 RMK AO2
 
KMGE - Dobbins Afb/Mari, Georgia, USA
Distance from station: S 24mi, 39km
Updated: Thu, 26-Jan-2023 6:55pm EST
Few Clouds
Few Clouds
 Wind from WNW
Wind: WNW 5 mph , 7 km/h
Temperature: 41°F , 5°C
Wind Chill: 38°F , 3°C
Dew Point: 25°F , -4°C
Humidity: 53%
Barometer: 30.15 inHg , 1021 hPa
Clouds: Few Clouds
Visibility: 10 miles , 16 km
Cloud details: Few Clouds 5000 ft
Few Clouds 25000 ft
2023/01/26 23:55 KMGE 262355Z 30004KT 10SM FEW050 FEW250 05/M04 A3015 RMK AO2A SLP218 T00451040 10086 20045 52016 $
KPDK - Peachtree/Dekalb, Georgia, USA
Distance from station: SSE 29mi, 47km
Updated: Thu, 26-Jan-2023 6:53pm EST
Clear
Clear
 Wind from NW
Wind: NW 6 mph , 9 km/h
Temperature: 41°F , 5°C
Wind Chill: 37°F , 3°C
Dew Point: 27°F , -3°C
Humidity: 57%
Barometer: 30.16 inHg , 1021.3 hPa
Clouds: Clear
Visibility: 10 miles , 16 km
2023/01/26 23:53 KPDK 262353Z 32005KT 10SM CLR 05/M03 A3016 RMK AO2 SLP226 T00501028 10083 20044 51016
KFTY - Atlanta/Fulton, Georgia, USA
Distance from station: S 34mi, 54km
Updated: Thu, 26-Jan-2023 6:53pm EST
Clear
Clear
 Wind from NW
Wind: NW 3 mph , 6 km/h
Temperature: 41°F , 5°C
Dew Point: 28°F , -2°C
Humidity: 61%
Barometer: 30.17 inHg , 1021.7 hPa
Clouds: Clear
Visibility: 10 miles , 16 km
2023/01/26 23:53 KFTY 262353Z 31003KT 10SM CLR 05/M02 A3017 RMK AO2 SLP220 T00501022 10094 20050 52016
 
KPUJ - Atlanta/Paulding, Georgia, USA
Distance from station: SW 34mi, 55km
Updated: Thu, 26-Jan-2023 7:35pm EST
Clear
Clear
 Wind from calm
Wind: Calm
Temperature: 36°F , 2°C
Dew Point: 28°F , -2°C
Humidity: 75%
Barometer: 30.16 inHg , 1021.3 hPa
Clouds: Clear
Visibility: 7 miles , 11 km
2023/01/27 00:35 KPUJ 270035Z AUTO 00000KT 7SM CLR 02/M02 A3016 RMK AO2
KDNN - Dalton, Georgia, USA
Distance from station: NW 37mi, 59km
Updated: Thu, 26-Jan-2023 7:35pm EST
Overcast
Overcast
 Wind from calm
Wind: Calm
Temperature: 41°F , 5°C
Dew Point: 28°F , -2°C
Humidity: 61%
Barometer: 30.18 inHg , 1022 hPa
Clouds: Overcast
Visibility: 10 miles , 16 km
Cloud details: Overcast 5500 ft
2023/01/27 00:35 KDNN 270035Z AUTO 00000KT 10SM OVC055 05/M02 A3018 RMK AO2 P0001 T00471016
KLZU - Lawrenceville, Georgia, USA
Distance from station: ESE 37mi, 59km
Updated: Thu, 26-Jan-2023 6:56pm EST
Clear
Clear
 Wind from calm
Wind: Calm
Temperature: 39°F , 4°C
Dew Point: 27°F , -3°C
Humidity: 61%
Barometer: 30.16 inHg , 1021.3 hPa
Clouds: Clear
Visibility: 10 miles , 16 km
2023/01/26 23:56 KLZU 262356Z 00000KT 10SM CLR 04/M03 A3016 RMK AO2 SLP229 T00441028 10078 20044 53015
 
KRMG - Rome, Georgia, USA
Distance from station: W 38mi, 61km
Updated: Thu, 26-Jan-2023 6:53pm EST
Overcast
Overcast
 Wind from calm
Wind: Calm
Temperature: 43°F , 6°C
Dew Point: 30°F , -1°C
Humidity: 61%
Barometer: 30.17 inHg , 1021.7 hPa
Clouds: Overcast
Visibility: 10 miles , 16 km
Cloud details: Overcast 5000 ft
2023/01/26 23:53 KRMG 262353Z AUTO 00000KT 10SM OVC050 06/M01 A3017 RMK AO2 SLP216 T00561011 10078 20056 53008
KGVL - Gainesville, Georgia, USA
Distance from station: E 39mi, 62km
Updated: Thu, 26-Jan-2023 6:53pm EST
Clear
Clear
 Wind from W
Wind: W 10 mph , 17 km/h
Temperature: 39°F , 4°C
Wind Chill: 32°F , 0°C
Dew Point: 25°F , -4°C
Humidity: 56%
Barometer: 30.16 inHg , 1021.3 hPa
Clouds: Clear
Visibility: 10 miles , 16 km
2023/01/26 23:53 KGVL 262353Z AUTO 28009KT 10SM CLR 04/M04 A3016 RMK AO2 SLP216 T00391044 10072 20039 53016
KATL - Atlanta, Georgia, USA
Distance from station: S 44mi, 71km
Updated: Thu, 26-Jan-2023 6:52pm EST
Few Clouds
Few Clouds
 Wind from WNW
Wind: WNW 6 mph , 9 km/h
Temperature: 43°F , 6°C
Wind Chill: 39°F , 4°C
Dew Point: 28°F , -2°C
Humidity: 57%
Barometer: 30.16 inHg , 1021.3 hPa
Clouds: Few Clouds
Visibility: 10 miles , 16 km
Cloud details: Few Clouds 5500 ft
Few Clouds 25000 ft
2023/01/26 23:52 KATL 262352Z 29005KT 10SM FEW055 FEW250 06/M02 A3016 RMK AO2 SLP220 T00611022 10100 20061 53016